sensor_id;sensor_type;location;lat;lon;timestamp;pressure;altitude;pressure_sealevel;temperature;humidity
66880;BME280;53789;51.392;10.234;2023-07-28T00:00:14;97153.63;;;16.71;100.00
66880;BME280;53789;51.392;10.234;2023-07-28T00:00:34;97146.06;;;16.71;100.00
66880;BME280;53789;51.392;10.234;2023-07-28T00:00:55;97148.06;;;16.71;100.00
66880;BME280;53789;51.392;10.234;2023-07-28T00:01:15;97150.84;;;16.71;100.00
66880;BME280;53789;51.392;10.234;2023-07-28T00:01:35;97146.44;;;16.70;100.00
66880;BME280;53789;51.392;10.234;2023-07-28T00:01:55;97146.44;;;16.70;100.00
66880;BME280;53789;51.392;10.234;2023-07-28T00:02:16;97152.00;;;16.70;100.00
66880;BME280;53789;51.392;10.234;2023-07-28T00:02:36;97143.69;;;16.70;100.00
66880;BME280;53789;51.392;10.234;2023-07-28T00:02:56;97149.22;;;16.70;100.00
66880;BME280;53789;51.392;10.234;2023-07-28T00:03:17;97152.78;;;16.70;100.00
66880;BME280;53789;51.392;10.234;2023-07-28T00:03:37;97153.16;;;16.69;100.00
66880;BME280;53789;51.392;10.234;2023-07-28T00:03:57;97152.78;;;16.70;100.00
66880;BME280;53789;51.392;10.234;2023-07-28T00:04:17;97155.56;;;16.70;100.00
66880;BME280;53789;51.392;10.234;2023-07-28T00:04:38;97161.50;;;16.69;100.00
66880;BME280;53789;51.392;10.234;2023-07-28T00:04:58;97154.00;;;16.69;100.00
66880;BME280;53789;51.392;10.234;2023-07-28T00:05:18;97157.56;;;16.70;100.00
66880;BME280;53789;51.392;10.234;2023-07-28T00:05:39;97151.22;;;16.69;100.00
66880;BME280;53789;51.392;10.234;2023-07-28T00:05:59;97154.78;;;16.70;100.00
66880;BME280;53789;51.392;10.234;2023-07-28T00:06:19;97156.38;;;16.71;100.00
66880;BME280;53789;51.392;10.234;2023-07-28T00:06:39;97159.16;;;16.71;100.00
66880;BME280;53789;51.392;10.234;2023-07-28T00:07:00;97161.13;;;16.70;100.00
66880;BME280;53789;51.392;10.234;2023-07-28T00:07:20;97158.34;;;16.70;100.00
66880;BME280;53789;51.392;10.234;2023-07-28T00:07:40;97158.34;;;16.70;100.00
66880;BME280;53789;51.392;10.234;2023-07-28T00:08:00;97154.00;;;16.69;100.00
66880;BME280;53789;51.392;10.234;2023-07-28T00:08:21;97152.00;;;16.70;100.00
66880;BME280;53789;51.392;10.234;2023-07-28T00:08:41;97154.78;;;16.70;100.00
66880;BME280;53789;51.392;10.234;2023-07-28T00:09:01;97159.53;;;16.69;100.00
66880;BME280;53789;51.392;10.234;2023-07-28T00:09:22;97155.16;;;16.68;100.00
66880;BME280;53789;51.392;10.234;2023-07-28T00:09:42;97148.00;;;16.67;100.00
66880;BME280;53789;51.392;10.234;2023-07-28T00:10:03;97142.44;;;16.67;100.00
66880;BME280;53789;51.392;10.234;2023-07-28T00:10:23;97157.13;;;16.68;100.00
66880;BME280;53789;51.392;10.234;2023-07-28T00:10:43;97158.31;;;16.67;100.00
66880;BME280;53789;51.392;10.234;2023-07-28T00:11:09;97162.69;;;16.68;100.00
66880;BME280;53789;51.392;10.234;2023-07-28T00:11:29;97153.91;;;16.66;100.00
66880;BME280;53789;51.392;10.234;2023-07-28T00:11:49;97149.19;;;16.66;100.00
66880;BME280;53789;51.392;10.234;2023-07-28T00:12:09;97156.31;;;16.67;100.00
66880;BME280;53789;51.392;10.234;2023-07-28T00:12:30;97155.16;;;16.68;100.00
66880;BME280;53789;51.392;10.234;2023-07-28T00:12:50;97147.19;;;16.67;100.00
66880;BME280;53789;51.392;10.234;2023-07-28T00:13:10;97154.38;;;16.68;100.00
66880;BME280;53789;51.392;10.234;2023-07-28T00:13:31;97151.97;;;16.66;100.00
66880;BME280;53789;51.392;10.234;2023-07-28T00:13:51;97149.19;;;16.66;100.00
66880;BME280;53789;51.392;10.234;2023-07-28T00:14:11;97152.75;;;16.67;100.00
66880;BME280;53789;51.392;10.234;2023-07-28T00:14:32;97152.75;;;16.67;100.00
66880;BME280;53789;51.392;10.234;2023-07-28T00:14:52;97151.97;;;16.66;100.00
66880;BME280;53789;51.392;10.234;2023-07-28T00:15:12;97157.50;;;16.66;100.00
66880;BME280;53789;51.392;10.234;2023-07-28T00:15:33;97156.69;;;16.66;100.00
66880;BME280;53789;51.392;10.234;2023-07-28T00:15:53;97149.56;;;16.65;100.00
66880;BME280;53789;51.392;10.234;2023-07-28T00:16:13;97152.34;;;16.65;100.00
66880;BME280;53789;51.392;10.234;2023-07-28T00:16:34;97155.13;;;16.65;100.00
66880;BME280;53789;51.392;10.234;2023-07-28T00:16:56;97158.25;;;16.63;100.00
66880;BME280;53789;51.392;10.234;2023-07-28T00:17:17;97151.53;;;16.64;100.00
66880;BME280;53789;51.392;10.234;2023-07-28T00:17:37;97153.13;;;16.65;100.00
66880;BME280;53789;51.392;10.234;2023-07-28T00:17:57;97153.13;;;16.65;100.00
66880;BME280;53789;51.392;10.234;2023-07-28T00:18:18;97160.66;;;16.65;100.00
66880;BME280;53789;51.392;10.234;2023-07-28T00:18:38;97160.66;;;16.65;100.00
66880;BME280;53789;51.392;10.234;2023-07-28T00:18:58;97154.28;;;16.64;100.00
66880;BME280;53789;51.392;10.234;2023-07-28T00:19:19;97157.06;;;16.64;100.00
66880;BME280;53789;51.392;10.234;2023-07-28T00:19:40;97159.84;;;16.64;100.00
66880;BME280;53789;51.392;10.234;2023-07-28T00:20:01;97164.59;;;16.64;100.00
66880;BME280;53789;51.392;10.234;2023-07-28T00:20:21;97159.06;;;16.64;100.00
66880;BME280;53789;51.392;10.234;2023-07-28T00:20:41;97154.28;;;16.64;100.00
66880;BME280;53789;51.392;10.234;2023-07-28T00:21:04;97159.84;;;16.64;100.00
66880;BME280;53789;51.392;10.234;2023-07-28T00:21:26;97154.66;;;16.63;100.00
66880;BME280;53789;51.392;10.234;2023-07-28T00:21:50;97159.06;;;16.64;100.00
66880;BME280;53789;51.392;10.234;2023-07-28T00:22:10;97157.88;;;16.65;100.00
66880;BME280;53789;51.392;10.234;2023-07-28T00:22:31;97154.28;;;16.64;100.00
66880;BME280;53789;51.392;10.234;2023-07-28T00:22:51;97165.84;;;16.66;100.00
66880;BME280;53789;51.392;10.234;2023-07-28T00:23:11;97161.47;;;16.65;100.00
66880;BME280;53789;51.392;10.234;2023-07-28T00:23:31;97155.91;;;16.65;100.00
66880;BME280;53789;51.392;10.234;2023-07-28T00:23:52;97154.28;;;16.64;100.00
66880;BME280;53789;51.392;10.234;2023-07-28T00:24:12;97161.03;;;16.63;100.00
66880;BME280;53789;51.392;10.234;2023-07-28T00:24:32;97155.13;;;16.65;100.00
66880;BME280;53789;51.392;10.234;2023-07-28T00:24:53;97159.84;;;16.64;100.00
66880;BME280;53789;51.392;10.234;2023-07-28T00:25:13;97155.88;;;16.62;100.00
66880;BME280;53789;51.392;10.234;2023-07-28T00:25:33;97155.50;;;16.63;100.00
66880;BME280;53789;51.392;10.234;2023-07-28T00:25:53;97154.28;;;16.64;100.00
66880;BME280;53789;51.392;10.234;2023-07-28T00:26:14;97155.50;;;16.63;100.00
66880;BME280;53789;51.392;10.234;2023-07-28T00:26:34;97157.88;;;16.65;100.00
66880;BME280;53789;51.392;10.234;2023-07-28T00:26:54;97156.28;;;16.64;100.00
66880;BME280;53789;51.392;10.234;2023-07-28T00:27:15;97155.91;;;16.65;100.00
66880;BME280;53789;51.392;10.234;2023-07-28T00:27:35;97150.34;;;16.65;100.00
66880;BME280;53789;51.392;10.234;2023-07-28T00:27:55;97152.75;;;16.67;100.00
66880;BME280;53789;51.392;10.234;2023-07-28T00:28:15;97151.16;;;16.66;100.00
66880;BME280;53789;51.392;10.234;2023-07-28T00:28:36;97145.59;;;16.66;100.00
66880;BME280;53789;51.392;10.234;2023-07-28T00:28:56;97150.34;;;16.65;100.00
66880;BME280;53789;51.392;10.234;2023-07-28T00:29:16;97149.97;;;16.67;100.00
66880;BME280;53789;51.392;10.234;2023-07-28T00:29:37;97156.31;;;16.67;100.00
66880;BME280;53789;51.392;10.234;2023-07-28T00:29:57;97151.59;;;16.68;100.00
66880;BME280;53789;51.392;10.234;2023-07-28T00:30:17;97149.59;;;16.68;100.00
66880;BME280;53789;51.392;10.234;2023-07-28T00:30:37;97152.38;;;16.68;100.00
66880;BME280;53789;51.392;10.234;2023-07-28T00:30:58;97152.38;;;16.68;100.00
66880;BME280;53789;51.392;10.234;2023-07-28T00:31:18;97148.81;;;16.68;100.00
66880;BME280;53789;51.392;10.234;2023-07-28T00:31:38;97149.59;;;16.68;100.00
66880;BME280;53789;51.392;10.234;2023-07-28T00:31:59;97152.00;;;16.70;100.00
66880;BME280;53789;51.392;10.234;2023-07-28T00:32:19;97146.44;;;16.70;100.00
66880;BME280;53789;51.392;10.234;2023-07-28T00:32:39;97147.25;;;16.70;100.00
66880;BME280;53789;51.392;10.234;2023-07-28T00:32:59;97142.50;;;16.71;100.00
66880;BME280;53789;51.392;10.234;2023-07-28T00:33:20;97141.69;;;16.70;100.00
66880;BME280;53789;51.392;10.234;2023-07-28T00:33:40;97142.50;;;16.71;100.00
66880;BME280;53789;51.392;10.234;2023-07-28T00:34:02;97143.31;;;16.71;100.00
66880;BME280;53789;51.392;10.234;2023-07-28T00:34:23;97145.69;;;16.73;100.00
66880;BME280;53789;51.392;10.234;2023-07-28T00:34:43;97145.69;;;16.73;100.00
66880;BME280;53789;51.392;10.234;2023-07-28T00:35:04;97146.53;;;16.73;100.00
66880;BME280;53789;51.392;10.234;2023-07-28T00:35:24;97149.31;;;16.73;100.00
66880;BME280;53789;51.392;10.234;2023-07-28T00:35:44;97147.31;;;16.74;100.00
66880;BME280;53789;51.392;10.234;2023-07-28T00:36:05;97149.31;;;16.73;100.00
66880;BME280;53789;51.392;10.234;2023-07-28T00:36:25;97145.69;;;16.73;100.00
66880;BME280;53789;51.392;10.234;2023-07-28T00:36:46;97152.06;;;16.73;100.00
66880;BME280;53789;51.392;10.234;2023-07-28T00:37:06;97151.25;;;16.73;100.00
66880;BME280;53789;51.392;10.234;2023-07-28T00:37:26;97153.66;;;16.74;100.00
66880;BME280;53789;51.392;10.234;2023-07-28T00:37:46;97154.84;;;16.73;100.00
66880;BME280;53789;51.392;10.234;2023-07-28T00:38:07;97145.69;;;16.73;100.00
66880;BME280;53789;51.392;10.234;2023-07-28T00:38:27;97154.47;;;16.75;100.00
66880;BME280;53789;51.392;10.234;2023-07-28T00:38:47;97145.31;;;16.74;100.00
66880;BME280;53789;51.392;10.234;2023-07-28T00:39:08;97153.66;;;16.74;100.00
66880;BME280;53789;51.392;10.234;2023-07-28T00:39:28;97144.53;;;16.74;100.00
66880;BME280;53789;51.392;10.234;2023-07-28T00:39:48;97147.31;;;16.74;100.00
66880;BME280;53789;51.392;10.234;2023-07-28T00:40:09;97150.09;;;16.74;100.00
66880;BME280;53789;51.392;10.234;2023-07-28T00:40:29;97143.75;;;16.73;100.00
66880;BME280;53789;51.392;10.234;2023-07-28T00:40:49;97144.91;;;16.72;100.00
66880;BME280;53789;51.392;10.234;2023-07-28T00:41:09;97149.31;;;16.73;100.00
66880;BME280;53789;51.392;10.234;2023-07-28T00:41:30;97146.53;;;16.73;100.00
66880;BME280;53789;51.392;10.234;2023-07-28T00:41:50;97142.13;;;16.72;100.00
66880;BME280;53789;51.392;10.234;2023-07-28T00:42:10;97136.59;;;16.72;100.00
66880;BME280;53789;51.392;10.234;2023-07-28T00:42:31;97137.75;;;16.71;100.00
66880;BME280;53789;51.392;10.234;2023-07-28T00:42:51;97129.41;;;16.71;100.00
66880;BME280;53789;51.392;10.234;2023-07-28T00:43:11;97138.91;;;16.70;100.00
66880;BME280;53789;51.392;10.234;2023-07-28T00:43:31;97135.34;;;16.70;100.00
66880;BME280;53789;51.392;10.234;2023-07-28T00:43:52;97123.88;;;16.71;100.00
66880;BME280;53789;51.392;10.234;2023-07-28T00:44:12;97131.41;;;16.71;100.00
66880;BME280;53789;51.392;10.234;2023-07-28T00:44:32;97128.63;;;16.71;100.00
66880;BME280;53789;51.392;10.234;2023-07-28T00:44:53;97128.63;;;16.71;100.00
66880;BME280;53789;51.392;10.234;2023-07-28T00:45:13;97127.81;;;16.70;100.00
66880;BME280;53789;51.392;10.234;2023-07-28T00:45:34;97125.03;;;16.70;100.00
66880;BME280;53789;51.392;10.234;2023-07-28T00:45:54;97126.66;;;16.71;100.00
66880;BME280;53789;51.392;10.234;2023-07-28T00:46:15;97133.00;;;16.72;100.00
66880;BME280;53789;51.392;10.234;2023-07-28T00:46:36;97133.81;;;16.72;100.00
66880;BME280;53789;51.392;10.234;2023-07-28T00:46:57;97126.28;;;16.73;100.00
66880;BME280;53789;51.392;10.234;2023-07-28T00:47:17;97126.28;;;16.73;100.00
66880;BME280;53789;51.392;10.234;2023-07-28T00:47:38;97127.09;;;16.73;100.00
66880;BME280;53789;51.392;10.234;2023-07-28T00:47:58;97126.66;;;16.71;100.00
66880;BME280;53789;51.392;10.234;2023-07-28T00:48:19;97121.88;;;16.72;100.00
66880;BME280;53789;51.392;10.234;2023-07-28T00:48:40;97124.31;;;16.73;100.00
66880;BME280;53789;51.392;10.234;2023-07-28T00:49:01;97121.88;;;16.72;100.00
66880;BME280;53789;51.392;10.234;2023-07-28T00:49:22;97125.47;;;16.72;100.00
66880;BME280;53789;51.392;10.234;2023-07-28T00:49:42;97134.97;;;16.71;100.00
66880;BME280;53789;51.392;10.234;2023-07-28T00:50:04;97127.81;;;16.70;100.00
66880;BME280;53789;51.392;10.234;2023-07-28T00:50:25;97127.03;;;16.70;100.00
66880;BME280;53789;51.392;10.234;2023-07-28T00:50:48;97136.13;;;16.70;100.00
66880;BME280;53789;51.392;10.234;2023-07-28T00:51:09;97128.19;;;16.69;100.00
66880;BME280;53789;51.392;10.234;2023-07-28T00:51:31;97132.94;;;16.68;100.00
66880;BME280;53789;51.392;10.234;2023-07-28T00:51:51;97132.16;;;16.68;100.00
66880;BME280;53789;51.392;10.234;2023-07-28T00:52:12;97131.34;;;16.67;100.00
66880;BME280;53789;51.392;10.234;2023-07-28T00:52:32;97126.59;;;16.68;100.00
66880;BME280;53789;51.392;10.234;2023-07-28T00:52:53;97125.78;;;16.67;100.00
66880;BME280;53789;51.392;10.234;2023-07-28T00:53:15;97127.41;;;16.68;100.00
66880;BME280;53789;51.392;10.234;2023-07-28T00:53:36;97132.16;;;16.68;100.00
66880;BME280;53789;51.392;10.234;2023-07-28T00:53:57;97130.16;;;16.68;100.00
66880;BME280;53789;51.392;10.234;2023-07-28T00:54:18;97127.78;;;16.67;100.00
66880;BME280;53789;51.392;10.234;2023-07-28T00:54:39;97130.53;;;16.67;100.00
66880;BME280;53789;51.392;10.234;2023-07-28T00:55:00;97128.56;;;16.67;100.00
66880;BME280;53789;51.392;10.234;2023-07-28T00:55:22;97128.19;;;16.69;100.00
66880;BME280;53789;51.392;10.234;2023-07-28T00:55:42;97127.41;;;16.68;100.00
66880;BME280;53789;51.392;10.234;2023-07-28T00:56:04;97124.63;;;16.68;100.00
66880;BME280;53789;51.392;10.234;2023-07-28T00:56:24;97129.00;;;16.69;100.00
66880;BME280;53789;51.392;10.234;2023-07-28T00:56:45;97120.69;;;16.69;100.00
66880;BME280;53789;51.392;10.234;2023-07-28T00:57:05;97128.19;;;16.69;100.00
66880;BME280;53789;51.392;10.234;2023-07-28T00:57:25;97125.41;;;16.69;100.00
66880;BME280;53789;51.392;10.234;2023-07-28T00:57:46;97124.63;;;16.68;100.00
66880;BME280;53789;51.392;10.234;2023-07-28T00:58:06;97117.09;;;16.69;100.00
66880;BME280;53789;51.392;10.234;2023-07-28T00:58:27;97124.25;;;16.70;100.00
66880;BME280;53789;51.392;10.234;2023-07-28T00:58:47;97119.47;;;16.70;100.00
66880;BME280;53789;51.392;10.234;2023-07-28T00:59:08;97125.41;;;16.69;100.00
66880;BME280;53789;51.392;10.234;2023-07-28T00:59:28;97124.63;;;16.68;100.00
66880;BME280;53789;51.392;10.234;2023-07-28T00:59:49;97122.63;;;16.69;100.00
66880;BME280;53789;51.392;10.234;2023-07-28T01:00:10;97118.69;;;16.70;100.00
66880;BME280;53789;51.392;10.234;2023-07-28T01:00:30;97121.47;;;16.70;100.00
66880;BME280;53789;51.392;10.234;2023-07-28T01:00:51;97127.81;;;16.70;100.00
66880;BME280;53789;51.392;10.234;2023-07-28T01:01:11;97127.81;;;16.70;100.00
66880;BME280;53789;51.392;10.234;2023-07-28T01:01:31;97130.59;;;16.70;100.00
66880;BME280;53789;51.392;10.234;2023-07-28T01:01:51;97117.91;;;16.69;100.00
66880;BME280;53789;51.392;10.234;2023-07-28T01:02:12;97127.03;;;16.70;100.00
66880;BME280;53789;51.392;10.234;2023-07-28T01:02:33;97120.31;;;16.71;100.00
66880;BME280;53789;51.392;10.234;2023-07-28T01:02:53;97121.88;;;16.72;100.00
66880;BME280;53789;51.392;10.234;2023-07-28T01:03:17;97125.84;;;16.71;100.00
66880;BME280;53789;51.392;10.234;2023-07-28T01:03:38;97122.25;;;16.70;100.00
66880;BME280;53789;51.392;10.234;2023-07-28T01:03:59;97117.09;;;16.69;100.00
66880;BME280;53789;51.392;10.234;2023-07-28T01:04:19;97117.91;;;16.69;100.00
66880;BME280;53789;51.392;10.234;2023-07-28T01:04:40;97115.91;;;16.70;100.00
66880;BME280;53789;51.392;10.234;2023-07-28T01:05:01;97127.03;;;16.70;100.00
66880;BME280;53789;51.392;10.234;2023-07-28T01:05:28;97119.47;;;16.70;100.00
66880;BME280;53789;51.392;10.234;2023-07-28T01:06:12;97130.59;;;16.70;100.00
66880;BME280;53789;51.392;10.234;2023-07-28T01:06:47;97127.03;;;16.70;100.00
66880;BME280;53789;51.392;10.234;2023-07-28T01:07:17;97123.44;;;16.69;100.00
66880;BME280;53789;51.392;10.234;2023-07-28T01:08:15;97134.97;;;16.71;100.00
66880;BME280;53789;51.392;10.234;2023-07-28T01:09:13;97129.00;;;16.69;100.00
66880;BME280;53789;51.392;10.234;2023-07-28T01:09:55;97122.63;;;16.69;100.00
66880;BME280;53789;51.392;10.234;2023-07-28T01:10:37;97134.56;;;16.69;100.00
66880;BME280;53789;51.392;10.234;2023-07-28T01:10:58;97134.56;;;16.69;100.00
66880;BME280;53789;51.392;10.234;2023-07-28T01:11:19;97128.19;;;16.69;100.00
66880;BME280;53789;51.392;10.234;2023-07-28T01:11:52;97132.56;;;16.70;100.00
66880;BME280;53789;51.392;10.234;2023-07-28T01:12:13;97134.56;;;16.69;100.00
66880;BME280;53789;51.392;10.234;2023-07-28T01:12:33;97129.78;;;16.70;100.00
66880;BME280;53789;51.392;10.234;2023-07-28T01:12:53;97133.38;;;16.70;100.00
66880;BME280;53789;51.392;10.234;2023-07-28T01:13:14;97128.63;;;16.71;100.00
66880;BME280;53789;51.392;10.234;2023-07-28T01:13:34;97131.41;;;16.71;100.00
66880;BME280;53789;51.392;10.234;2023-07-28T01:13:54;97131.41;;;16.71;100.00
66880;BME280;53789;51.392;10.234;2023-07-28T01:14:15;97131.41;;;16.71;100.00
66880;BME280;53789;51.392;10.234;2023-07-28T01:14:35;97123.06;;;16.71;100.00
66880;BME280;53789;51.392;10.234;2023-07-28T01:14:55;97126.66;;;16.71;100.00
66880;BME280;53789;51.392;10.234;2023-07-28T01:15:15;97125.84;;;16.71;100.00
66880;BME280;53789;51.392;10.234;2023-07-28T01:15:36;97129.78;;;16.70;100.00
66880;BME280;53789;51.392;10.234;2023-07-28T01:15:56;97129.00;;;16.69;100.00
66880;BME280;53789;51.392;10.234;2023-07-28T01:16:16;97123.44;;;16.69;100.00
66880;BME280;53789;51.392;10.234;2023-07-28T01:16:37;97130.59;;;16.70;100.00
66880;BME280;53789;51.392;10.234;2023-07-28T01:16:57;97132.56;;;16.70;100.00
66880;BME280;53789;51.392;10.234;2023-07-28T01:17:17;97128.19;;;16.69;100.00
66880;BME280;53789;51.392;10.234;2023-07-28T01:17:38;97124.63;;;16.68;100.00
66880;BME280;53789;51.392;10.234;2023-07-28T01:17:58;97129.38;;;16.68;100.00
66880;BME280;53789;51.392;10.234;2023-07-28T01:18:19;97136.50;;;16.69;100.00
66880;BME280;53789;51.392;10.234;2023-07-28T01:18:40;97132.53;;;16.66;100.00
66880;BME280;53789;51.392;10.234;2023-07-28T01:19:00;97139.66;;;16.67;100.00
66880;BME280;53789;51.392;10.234;2023-07-28T01:19:21;97139.66;;;16.67;100.00
66880;BME280;53789;51.392;10.234;2023-07-28T01:19:42;97136.88;;;16.67;100.00
66880;BME280;53789;51.392;10.234;2023-07-28T01:20:03;97129.38;;;16.68;100.00
66880;BME280;53789;51.392;10.234;2023-07-28T01:20:29;97135.31;;;16.66;100.00
66880;BME280;53789;51.392;10.234;2023-07-28T01:20:54;97138.88;;;16.67;100.00
66880;BME280;53789;51.392;10.234;2023-07-28T01:21:29;97135.31;;;16.66;100.00
66880;BME280;53789;51.392;10.234;2023-07-28T01:23:16;97135.69;;;16.65;100.00
66880;BME280;53789;51.392;10.234;2023-07-28T01:24:10;97137.25;;;16.66;100.00
66880;BME280;53789;51.392;10.234;2023-07-28T01:24:51;97128.16;;;16.65;100.00
66880;BME280;53789;51.392;10.234;2023-07-28T01:25:50;97140.41;;;16.64;100.00
66880;BME280;53789;51.392;10.234;2023-07-28T01:26:16;97135.69;;;16.65;100.00
66880;BME280;53789;51.392;10.234;2023-07-28T01:26:39;97135.63;;;16.61;100.00
66880;BME280;53789;51.392;10.234;2023-07-28T01:27:00;97135.19;;;16.59;100.00
66880;BME280;53789;51.392;10.234;2023-07-28T01:27:21;97133.22;;;16.60;100.00
66880;BME280;53789;51.392;10.234;2023-07-28T01:27:43;97136.38;;;16.58;100.00
66880;BME280;53789;51.392;10.234;2023-07-28T01:28:04;97138.75;;;16.60;100.00
66880;BME280;53789;51.392;10.234;2023-07-28T01:28:26;97137.97;;;16.59;100.00
66880;BME280;53789;51.392;10.234;2023-07-28T01:28:47;97137.97;;;16.59;100.00
66880;BME280;53789;51.392;10.234;2023-07-28T01:29:09;97139.94;;;16.59;100.00
66880;BME280;53789;51.392;10.234;2023-07-28T01:29:30;97136.00;;;16.60;100.00
66880;BME280;53789;51.392;10.234;2023-07-28T01:29:51;97142.31;;;16.60;100.00
66880;BME280;53789;51.392;10.234;2023-07-28T01:30:12;97137.16;;;16.59;100.00
66880;BME280;53789;51.392;10.234;2023-07-28T01:30:32;97133.59;;;16.58;100.00
66880;BME280;53789;51.392;10.234;2023-07-28T01:30:53;97140.31;;;16.57;100.00
66880;BME280;53789;51.392;10.234;2023-07-28T01:31:13;97139.50;;;16.56;100.00
66880;BME280;53789;51.392;10.234;2023-07-28T01:31:34;97141.13;;;16.58;100.00
66880;BME280;53789;51.392;10.234;2023-07-28T01:31:54;97137.53;;;16.57;100.00
66880;BME280;53789;51.392;10.234;2023-07-28T01:32:14;97145.84;;;16.57;100.00
66880;BME280;53789;51.392;10.234;2023-07-28T01:32:35;97143.91;;;16.58;100.00
66880;BME280;53789;51.392;10.234;2023-07-28T01:32:56;97143.06;;;16.57;100.00
66880;BME280;53789;51.392;10.234;2023-07-28T01:33:17;97143.06;;;16.57;100.00
66880;BME280;53789;51.392;10.234;2023-07-28T01:33:37;97145.84;;;16.57;100.00
66880;BME280;53789;51.392;10.234;2023-07-28T01:33:57;97144.69;;;16.58;100.00
66880;BME280;53789;51.392;10.234;2023-07-28T01:34:18;97141.91;;;16.58;100.00
66880;BME280;53789;51.392;10.234;2023-07-28T01:34:38;97140.75;;;16.59;100.00
66880;BME280;53789;51.392;10.234;2023-07-28T01:34:58;97146.31;;;16.59;100.00
66880;BME280;53789;51.392;10.234;2023-07-28T01:35:19;97148.25;;;16.59;100.00
66880;BME280;53789;51.392;10.234;2023-07-28T01:35:39;97145.09;;;16.60;100.00
66880;BME280;53789;51.392;10.234;2023-07-28T01:36:00;97140.75;;;16.59;100.00
66880;BME280;53789;51.392;10.234;2023-07-28T01:36:20;97139.94;;;16.59;100.00
66880;BME280;53789;51.392;10.234;2023-07-28T01:36:40;97149.06;;;16.59;100.00
66880;BME280;53789;51.392;10.234;2023-07-28T01:37:01;97148.25;;;16.59;100.00
66880;BME280;53789;51.392;10.234;2023-07-28T01:37:21;97147.47;;;16.58;100.00
66880;BME280;53789;51.392;10.234;2023-07-28T01:37:41;97154.19;;;16.57;100.00
66880;BME280;53789;51.392;10.234;2023-07-28T01:38:02;97149.81;;;16.56;100.00
66880;BME280;53789;51.392;10.234;2023-07-28T01:38:22;97146.22;;;16.55;100.00
66880;BME280;53789;51.392;10.234;2023-07-28T01:38:42;97147.41;;;16.54;100.00
66880;BME280;53789;51.392;10.234;2023-07-28T01:39:02;97144.66;;;16.54;100.00
66880;BME280;53789;51.392;10.234;2023-07-28T01:39:23;97142.66;;;16.55;100.00
66880;BME280;53789;51.392;10.234;2023-07-28T01:39:43;97144.28;;;16.56;100.00
66880;BME280;53789;51.392;10.234;2023-07-28T01:40:04;97141.50;;;16.56;100.00
66880;BME280;53789;51.392;10.234;2023-07-28T01:40:24;97142.66;;;16.55;100.00
66880;BME280;53789;51.392;10.234;2023-07-28T01:40:44;97142.66;;;16.55;100.00
66880;BME280;53789;51.392;10.234;2023-07-28T01:41:05;97144.66;;;16.54;100.00
66880;BME280;53789;51.392;10.234;2023-07-28T01:41:25;97142.25;;;16.53;100.00
66880;BME280;53789;51.392;10.234;2023-07-28T01:41:45;97150.56;;;16.53;100.00
66880;BME280;53789;51.392;10.234;2023-07-28T01:42:06;97140.25;;;16.53;100.00
66880;BME280;53789;51.392;10.234;2023-07-28T01:42:26;97143.81;;;16.54;100.00
66880;BME280;53789;51.392;10.234;2023-07-28T01:42:46;97145.03;;;16.53;100.00
66880;BME280;53789;51.392;10.234;2023-07-28T01:43:06;97149.38;;;16.54;100.00
66880;BME280;53789;51.392;10.234;2023-07-28T01:43:27;97143.41;;;16.52;100.00
66880;BME280;53789;51.392;10.234;2023-07-28T01:43:47;97139.84;;;16.51;100.00
66880;BME280;53789;51.392;10.234;2023-07-28T01:44:07;97146.19;;;16.52;100.00
66880;BME280;53789;51.392;10.234;2023-07-28T01:44:28;97145.78;;;16.50;100.00
66880;BME280;53789;51.392;10.234;2023-07-28T01:44:48;97143.00;;;16.50;100.00
66880;BME280;53789;51.392;10.234;2023-07-28T01:45:08;97143.00;;;16.50;100.00
66880;BME280;53789;51.392;10.234;2023-07-28T01:45:29;97143.00;;;16.50;100.00
66880;BME280;53789;51.392;10.234;2023-07-28T01:45:49;97144.16;;;16.49;100.00
66880;BME280;53789;51.392;10.234;2023-07-28T01:46:10;97138.59;;;16.49;100.00
66880;BME280;53789;51.392;10.234;2023-07-28T01:46:30;97144.56;;;16.51;100.00
66880;BME280;53789;51.392;10.234;2023-07-28T01:46:50;97144.56;;;16.51;100.00
66880;BME280;53789;51.392;10.234;2023-07-28T01:47:10;97152.09;;;16.50;100.00
66880;BME280;53789;51.392;10.234;2023-07-28T01:47:31;97145.78;;;16.50;100.00
66880;BME280;53789;51.392;10.234;2023-07-28T01:47:51;97145.31;;;16.48;100.00
66880;BME280;53789;51.392;10.234;2023-07-28T01:48:11;97145.31;;;16.48;100.00
66880;BME280;53789;51.392;10.234;2023-07-28T01:48:32;97135.00;;;16.48;100.00
66880;BME280;53789;51.392;10.234;2023-07-28T01:48:52;97143.00;;;16.50;100.00
66880;BME280;53789;51.392;10.234;2023-07-28T01:49:12;97150.88;;;16.48;100.00
66880;BME280;53789;51.392;10.234;2023-07-28T01:49:32;97141.75;;;16.47;100.00
66880;BME280;53789;51.392;10.234;2023-07-28T01:49:53;97152.47;;;16.49;100.00
66880;BME280;53789;51.392;10.234;2023-07-28T01:50:13;97141.75;;;16.47;100.00
66880;BME280;53789;51.392;10.234;2023-07-28T01:50:33;97149.25;;;16.47;100.00
66880;BME280;53789;51.392;10.234;2023-07-28T01:50:54;97152.03;;;16.47;100.00
66880;BME280;53789;51.392;10.234;2023-07-28T01:51:14;97144.53;;;16.47;100.00
66880;BME280;53789;51.392;10.234;2023-07-28T01:51:34;97150.09;;;16.47;100.00
66880;BME280;53789;51.392;10.234;2023-07-28T01:51:54;97144.91;;;16.46;100.00
66880;BME280;53789;51.392;10.234;2023-07-28T01:52:15;97148.47;;;16.46;100.00
66880;BME280;53789;51.392;10.234;2023-07-28T01:52:35;97144.09;;;16.45;100.00